createdAt,value
2022-09-28T00:03:58.852Z,4.57
2022-09-28T00:10:00.579Z,4.30
2022-09-28T00:16:07.428Z,5.17
2022-09-28T00:22:09.262Z,4.47
2022-09-28T00:28:10.952Z,4.67
2022-09-28T00:34:13.285Z,4.53
2022-09-28T00:40:15.128Z,4.77
2022-09-28T00:46:33.881Z,4.70
2022-09-28T00:53:06.507Z,6.47
2022-09-28T00:59:09.511Z,5.90
2022-09-28T01:05:12.053Z,5.87
2022-09-28T01:11:13.778Z,5.50
2022-09-28T01:17:28.806Z,5.40
2022-09-28T01:23:48.756Z,6.03
2022-09-28T01:30:08.719Z,5.40
2022-09-28T01:36:39.779Z,4.70
2022-09-28T01:42:44.369Z,6.03
2022-09-28T01:49:27.802Z,5.93
2022-09-28T01:55:37.508Z,4.43
2022-09-28T02:01:53.926Z,7.23
2022-09-28T02:08:04.448Z,4.77
2022-09-28T02:14:09.958Z,5.90
2022-09-28T02:20:11.910Z,4.83
2022-09-28T02:26:21.245Z,6.13
2022-09-28T02:32:26.319Z,5.30
2022-09-28T02:38:28.059Z,6.57
2022-09-28T02:44:54.048Z,5.10
2022-09-28T02:51:20.840Z,3.90
2022-09-28T02:57:46.990Z,6.27
2022-09-28T03:04:09.164Z,4.40
2022-09-28T03:10:16.820Z,4.20
2022-09-28T03:16:19.983Z,4.20
2022-09-28T03:22:21.831Z,4.33
2022-09-28T03:28:23.662Z,5.20
2022-09-28T03:34:25.403Z,5.83
2022-09-28T03:40:27.291Z,4.47
2022-09-28T03:46:29.102Z,6.33
2022-09-28T03:52:30.801Z,6.90
2022-09-28T03:58:32.808Z,5.60
2022-09-28T04:04:34.613Z,4.97
2022-09-28T04:10:36.461Z,4.83
2022-09-28T04:16:38.455Z,6.43
2022-09-28T04:22:40.350Z,7.13
2022-09-28T04:29:06.188Z,7.20
2022-09-28T04:35:11.658Z,6.90
2022-09-28T04:41:13.374Z,7.00
2022-09-28T04:47:15.106Z,7.20
2022-09-28T04:53:16.859Z,7.37
2022-09-28T04:59:18.768Z,6.60
2022-09-28T05:05:21.212Z,6.73
2022-09-28T05:11:23.318Z,6.27
2022-09-28T05:17:25.271Z,8.00
2022-09-28T05:23:27.196Z,8.33
2022-09-28T05:29:32.071Z,7.47
2022-09-28T05:35:35.119Z,8.23
2022-09-28T05:41:38.842Z,7.73
2022-09-28T05:47:43.031Z,7.63
2022-09-28T05:53:44.865Z,8.13
2022-09-28T05:59:46.716Z,6.73
2022-09-28T06:12:05.339Z,8.47
2022-09-28T06:18:11.153Z,7.80
2022-09-28T06:24:13.066Z,7.07
2022-09-28T06:30:14.919Z,24.73
2022-09-28T06:36:29.391Z,8.23
2022-09-28T06:42:31.282Z,6.40
2022-09-28T06:48:36.515Z,7.23
2022-09-28T06:54:38.359Z,5.77
2022-09-28T07:00:50.645Z,6.13
2022-09-28T07:19:28.012Z,5.90
2022-09-28T07:25:32.506Z,5.13
2022-09-28T07:31:35.350Z,4.60
2022-09-28T07:44:42.692Z,3.80
2022-09-28T07:50:57.582Z,5.43
2022-09-28T08:16:08.628Z,4.67
2022-09-28T08:29:01.083Z,3.20
2022-09-28T08:35:04.257Z,1.20
2022-09-28T08:47:50.714Z,0.90
2022-09-28T08:54:06.853Z,1.95
2022-09-28T11:08:51.232Z,1.40
2022-09-28T11:15:03.270Z,1.27
2022-09-28T11:27:34.354Z,0.90
2022-09-28T11:33:47.769Z,0.90
2022-09-28T11:40:14.237Z,0.85
2022-09-28T12:19:08.986Z,2.17
2022-09-28T12:25:24.762Z,2.20
2022-09-28T12:51:03.622Z,2.25
2022-09-28T13:10:41.025Z,1.85
2022-09-28T13:17:21.558Z,1.80
2022-09-28T13:29:51.951Z,1.20
2022-09-28T13:36:02.530Z,2.10
2022-09-28T13:42:09.834Z,3.08
2022-09-28T13:48:15.670Z,1.58
2022-09-28T15:05:54.487Z,5.90
2022-09-28T15:12:08.762Z,12.48
2022-09-28T16:35:21.839Z,6.30
2022-09-28T16:47:41.078Z,4.43
2022-09-28T16:54:02.198Z,3.13
2022-09-28T17:00:04.569Z,9.03
2022-09-28T17:06:06.688Z,5.87
2022-09-28T17:12:27.387Z,15.97
2022-09-28T17:18:32.060Z,11.63
2022-09-28T17:24:34.413Z,13.00
2022-09-28T17:30:36.673Z,12.90
2022-09-28T17:36:41.002Z,17.30
2022-09-28T17:42:42.993Z,16.63
2022-09-28T17:48:47.165Z,14.47
2022-09-28T17:54:48.917Z,12.37
2022-09-28T18:00:52.015Z,11.73
2022-09-28T18:06:53.874Z,9.87
2022-09-28T18:13:06.086Z,7.33
2022-09-28T18:19:07.975Z,37.43
2022-09-28T18:25:11.214Z,37.13
2022-09-28T18:31:16.193Z,24.00
2022-09-28T18:37:18.066Z,17.67
2022-09-28T18:43:19.887Z,7.63
2022-09-28T18:49:24.899Z,17.33
2022-09-28T18:55:27.102Z,19.73
2022-09-28T19:01:30.382Z,15.60
2022-09-28T19:07:33.838Z,12.73
2022-09-28T19:13:36.398Z,15.27
2022-09-28T19:19:38.472Z,17.30
2022-09-28T19:25:41.133Z,14.97
2022-09-28T19:31:43.691Z,16.23
2022-09-28T19:37:46.996Z,15.50
2022-09-28T19:43:48.759Z,11.67
2022-09-28T19:49:50.584Z,12.20
2022-09-28T19:55:57.455Z,9.73
2022-09-28T20:02:01.416Z,10.83
2022-09-28T20:14:09.784Z,13.20
2022-09-28T20:20:11.684Z,10.73
2022-09-28T20:26:14.871Z,13.57
2022-09-28T20:32:16.760Z,13.47
2022-09-28T20:38:18.602Z,13.57
2022-09-28T20:44:20.544Z,10.20
2022-09-28T20:50:23.663Z,9.40
2022-09-28T20:56:39.033Z,7.50
2022-09-28T21:02:40.937Z,8.37
2022-09-28T21:08:44.456Z,8.47
2022-09-28T21:14:46.292Z,7.13
2022-09-28T21:20:49.981Z,7.43
2022-09-28T21:26:51.822Z,6.00
2022-09-28T21:32:53.818Z,6.03
2022-09-28T21:38:56.228Z,6.13
2022-09-28T21:44:59.536Z,4.67
2022-09-28T21:51:03.959Z,4.90
2022-09-28T21:57:05.723Z,5.30
2022-09-28T22:03:07.680Z,5.33
2022-09-28T22:09:09.602Z,5.40
2022-09-28T22:15:11.517Z,5.33
2022-09-28T22:21:32.105Z,11.00
2022-09-28T22:27:33.874Z,6.47
2022-09-28T22:33:35.760Z,6.93
2022-09-28T22:39:38.032Z,6.90
2022-09-28T22:45:39.937Z,6.20
2022-09-28T22:51:41.731Z,5.83
2022-09-28T22:57:43.494Z,7.73
2022-09-28T23:03:45.961Z,6.90
2022-09-28T23:09:47.712Z,7.20
2022-09-28T23:15:57.605Z,7.30
2022-09-28T23:21:59.531Z,5.10
2022-09-28T23:28:01.526Z,3.53
2022-09-28T23:34:05.977Z,3.70
2022-09-28T23:40:07.932Z,3.20
2022-09-28T23:46:09.690Z,3.90
2022-09-28T23:52:11.694Z,6.17
2022-09-28T23:58:13.568Z,3.83
